Time;durP1;ratioP1;P1;durP2;ratioP2;P2;SDS_P1;SDS_P2;PMS_P1;PMS_P2;Temp;Humidity;BMP_temperature;BMP_pressure;BME280_temperature;BME280_humidity;BME280_pressure;Samples;Min_cycle;Max_cycle;Signal;HPM_P1;HPM_P2
2020/12/12 00:01:55;;;;;;;24.52;10.48;;;;;;;0.12;63.68;101201.30;1627513;86;21071;-80
2020/12/12 00:04:23;;;;;;;26.07;10.18;;;;;;;0.13;63.68;101204.28;1627531;85;21060;-79
2020/12/12 00:06:50;;;;;;;18.48;6.33;;;;;;;0.16;63.66;101208.59;1627780;86;21217;-80
2020/12/12 00:09:18;;;;;;;18.98;7.00;;;;;;;0.14;63.62;101219.34;1627846;86;21056;-80
2020/12/12 00:11:47;;;;;;;14.65;6.97;;;;;;;0.15;63.58;101197.84;1630035;86;20957;-79
2020/12/12 00:14:15;;;;;;;22.42;9.35;;;;;;;0.15;63.55;101209.00;1630000;86;20993;-78
2020/12/12 00:16:43;;;;;;;17.95;7.10;;;;;;;0.16;63.45;101206.02;1630937;85;20965;-79
2020/12/12 00:19:13;;;;;;;18.17;8.20;;;;;;;0.11;61.27;101208.62;1630510;86;20989;-80
2020/12/12 00:21:41;;;;;;;16.87;7.50;;;;;;;-0.04;60.53;101216.03;1628160;86;20992;-79
2020/12/12 00:24:09;;;;;;;16.35;8.73;;;;;;;-0.26;60.33;101222.19;1627998;86;21386;-77
2020/12/12 00:26:37;;;;;;;19.37;8.90;;;;;;;-0.48;60.53;101219.70;1627633;86;21430;-80
2020/12/12 00:29:05;;;;;;;14.93;9.08;;;;;;;-0.60;60.73;101231.38;1627259;86;21036;-80
2020/12/12 00:31:33;;;;;;;15.55;7.70;;;;;;;-0.70;60.71;101226.67;1627315;87;21839;-81
2020/12/12 00:34:02;;;;;;;24.05;9.83;;;;;;;-0.78;60.74;101222.41;1627477;87;21545;-79
2020/12/12 00:36:30;;;;;;;23.73;9.05;;;;;;;-0.89;60.92;101219.45;1627545;87;21535;-80
2020/12/12 00:38:58;;;;;;;17.62;8.30;;;;;;;-0.99;61.01;101220.33;1627573;87;21514;-80
2020/12/12 00:41:26;;;;;;;21.73;8.68;;;;;;;-1.08;61.16;101213.92;1627524;87;21053;-79
2020/12/12 00:43:54;;;;;;;18.62;8.05;;;;;;;-1.17;61.36;101199.36;1627216;87;21138;-80
2020/12/12 00:46:21;;;;;;;16.95;8.20;;;;;;;-1.22;61.40;101209.22;1627098;87;21127;-79
2020/12/12 00:48:51;;;;;;;20.35;9.28;;;;;;;-1.29;61.49;101195.52;1627345;87;20984;-78
2020/12/12 00:51:19;;;;;;;20.90;9.45;;;;;;;-1.33;61.59;101192.11;1627161;86;20949;-79
2020/12/12 00:53:47;;;;;;;17.35;9.15;;;;;;;-1.31;61.46;101202.41;1629854;84;20960;-76
2020/12/12 00:56:16;;;;;;;21.80;9.23;;;;;;;-1.32;61.48;101205.38;1630597;87;22059;-78
2020/12/12 00:58:44;;;;;;;18.37;8.95;;;;;;;-1.31;61.50;101210.13;1630551;87;21584;-78
2020/12/12 01:01:13;;;;;;;15.50;8.43;;;;;;;-1.27;61.42;101211.80;1630375;87;21178;-78
2020/12/12 01:03:41;;;;;;;22.60;10.15;;;;;;;-1.34;61.36;101210.11;1630574;87;20920;-78
2020/12/12 01:06:15;;;;;;;14.90;8.53;;;;;;;-1.40;61.53;101212.28;1630520;87;20980;-79
2020/12/12 01:08:42;;;;;;;16.80;8.98;;;;;;;-1.43;61.59;101204.55;1630833;87;21204;-79
2020/12/12 01:11:12;;;;;;;27.15;9.95;;;;;;;-1.48;61.75;101198.56;1634499;86;20960;-78
2020/12/12 01:13:40;;;;;;;15.75;8.38;;;;;;;-1.53;61.86;101197.28;1630498;87;20972;-78
2020/12/12 01:16:09;;;;;;;17.73;9.38;;;;;;;-1.50;61.93;101198.98;1630652;87;20932;-78
2020/12/12 01:18:39;;;;;;;19.00;9.55;;;;;;;-1.47;61.79;101198.97;1630796;87;20952;-78
2020/12/12 01:21:08;;;;;;;26.85;10.68;;;;;;;-1.49;61.81;101196.83;1630778;87;21007;-77
2020/12/12 01:23:36;;;;;;;21.52;9.60;;;;;;;-1.47;61.96;101188.28;1631911;87;21453;-77
2020/12/12 01:26:04;;;;;;;21.57;10.18;;;;;;;-1.38;61.82;101189.10;1632795;87;21055;-76
2020/12/12 01:28:34;;;;;;;27.70;9.85;;;;;;;-1.35;61.53;101197.69;1633050;87;21138;-79
2020/12/12 01:31:02;;;;;;;21.05;10.95;;;;;;;-1.36;61.46;101188.23;1630794;87;21559;-78
2020/12/12 01:33:30;;;;;;;17.67;9.10;;;;;;;-1.42;61.69;101180.95;1630939;87;20993;-78
2020/12/12 01:35:58;;;;;;;25.32;10.30;;;;;;;-1.41;61.58;101180.12;1630811;87;20952;-79
2020/12/12 01:38:26;;;;;;;23.75;10.05;;;;;;;-1.46;61.77;101176.27;1631030;87;21056;-79
2020/12/12 01:40:55;;;;;;;22.17;9.83;;;;;;;-1.44;61.81;101172.42;1630922;87;21063;-78
2020/12/12 01:43:23;;;;;;;21.07;9.98;;;;;;;-1.45;61.80;101171.53;1630801;87;20929;-79
2020/12/12 01:45:51;;;;;;;26.05;10.20;;;;;;;-1.44;61.88;101166.84;1630767;87;22149;-78
2020/12/12 01:48:20;;;;;;;25.27;10.15;;;;;;;-1.43;61.80;101162.54;1630713;87;20996;-78
2020/12/12 01:50:48;;;;;;;24.00;9.93;;;;;;;-1.44;61.81;101162.13;1630622;87;20964;-79
2020/12/12 01:53:18;;;;;;;23.52;10.93;;;;;;;-1.47;61.81;101161.27;1630459;87;20996;-80
2020/12/12 01:55:47;;;;;;;19.45;10.28;;;;;;;-1.50;61.97;101156.55;1630995;86;21054;-79
2020/12/12 01:58:16;;;;;;;18.90;10.32;;;;;;;-1.50;62.04;101152.26;1649109;85;21022;-82
2020/12/12 02:00:44;;;;;;;18.92;9.88;;;;;;;-1.44;61.99;101161.69;1668390;84;21045;-79
2020/12/12 02:03:13;;;;;;;23.75;11.90;;;;;;;-1.42;61.89;101159.09;1669147;84;21053;-81
2020/12/12 02:05:45;;;;;;;26.17;11.97;;;;;;;-1.45;62.02;101157.39;1635764;86;20968;-81
2020/12/12 02:08:16;;;;;;;18.98;9.00;;;;;;;-1.44;61.92;101160.84;1631229;86;21077;-79
2020/12/12 02:10:49;;;;;;;18.95;10.63;;;;;;;-1.49;62.04;101153.11;1667469;84;21161;-79
2020/12/12 02:13:18;;;;;;;20.57;10.43;;;;;;;-1.51;62.17;101154.42;1635760;86;20991;-80
2020/12/12 02:15:46;;;;;;;28.50;11.38;;;;;;;-1.53;62.21;101153.56;1668538;84;21033;-78
2020/12/12 02:18:22;;;;;;;20.88;11.35;;;;;;;-1.55;62.32;101154.42;1634413;86;21513;-79
2020/12/12 02:20:55;;;;;;;24.52;11.75;;;;;;;-1.56;62.44;101148.41;1649157;85;26391;-79
2020/12/12 02:23:23;;;;;;;24.23;11.53;;;;;;;-1.57;62.53;101150.56;1668615;84;21505;-80
2020/12/12 02:25:52;;;;;;;25.88;11.55;;;;;;;-1.52;62.51;101150.55;1635646;86;21106;-80
2020/12/12 02:28:24;;;;;;;22.37;11.05;;;;;;;-1.55;62.54;101149.28;1668594;84;21478;-80
2020/12/12 02:30:51;;;;;;;18.67;10.45;;;;;;;-1.56;62.55;101148.84;1668629;84;20987;-80
2020/12/12 02:33:19;;;;;;;20.57;9.93;;;;;;;-1.60;62.67;101145.44;1668688;84;21523;-80
2020/12/12 02:35:47;;;;;;;23.55;10.93;;;;;;;-1.63;62.77;101143.28;1668758;84;21203;-82
2020/12/12 02:38:16;;;;;;;19.90;9.15;;;;;;;-1.63;62.91;101144.13;1668740;84;21627;-82
2020/12/12 02:40:45;;;;;;;25.70;10.13;;;;;;;-1.60;62.85;101148.01;1668647;84;21057;-81
2020/12/12 02:46:05;;;;;;;23.05;8.85;;;;;;;-1.52;62.78;101142.40;1777005;79;23181;-80
2020/12/12 02:48:37;;;;;;;19.73;10.25;;;;;;;-1.56;62.76;101141.13;1720213;82;21484;-80
2020/12/12 02:51:05;;;;;;;27.17;9.95;;;;;;;-1.56;62.77;101136.83;1720196;82;21463;-79
2020/12/12 02:53:33;;;;;;;18.40;9.55;;;;;;;-1.52;62.76;101128.69;1720128;80;21114;-79
2020/12/12 02:56:01;;;;;;;17.95;9.68;;;;;;;-1.49;62.72;101128.27;1720248;82;20966;-79
2020/12/12 02:58:29;;;;;;;19.90;9.88;;;;;;;-1.41;62.52;101124.38;1720226;82;21018;-81
2020/12/12 03:00:59;;;;;;;16.40;10.05;;;;;;;-1.39;62.38;101128.24;1718986;82;20951;-80
2020/12/12 03:03:27;;;;;;;19.40;8.80;;;;;;;-1.37;62.40;101123.52;1720266;82;21014;-81
2020/12/12 03:05:55;;;;;;;22.85;9.93;;;;;;;-1.35;62.12;101114.52;1720978;82;21409;-84
2020/12/12 03:08:24;;;;;;;17.57;9.55;;;;;;;-1.39;62.10;101116.23;1721195;80;20915;-80
2020/12/12 03:10:52;;;;;;;15.83;8.80;;;;;;;-1.45;62.12;101109.80;1721735;82;20951;-80
2020/12/12 03:13:20;;;;;;;15.05;8.58;;;;;;;-1.53;62.33;101106.42;1721263;82;20995;-82
2020/12/12 03:15:48;;;;;;;15.03;8.10;;;;;;;-1.57;62.49;101106.84;1720531;82;21018;-81
2020/12/12 03:18:16;;;;;;;15.63;9.18;;;;;;;-1.61;62.49;101111.56;1720396;82;20947;-81
2020/12/12 03:20:44;;;;;;;17.92;8.48;;;;;;;-1.69;62.61;101112.88;1749981;82;20951;-81
2020/12/12 03:23:13;;;;;;;15.13;8.43;;;;;;;-1.72;62.73;101110.73;1720179;82;21165;-80
2020/12/12 03:25:41;;;;;;;17.20;8.18;;;;;;;-1.73;62.84;101112.89;1718810;82;21034;-79
2020/12/12 03:28:09;;;;;;;16.25;8.53;;;;;;;-1.67;62.79;101121.85;1720044;82;21235;-81
2020/12/12 03:30:38;;;;;;;18.27;9.13;;;;;;;-1.68;62.75;101115.01;1720220;82;21046;-80
2020/12/12 03:33:06;;;;;;;20.32;9.83;;;;;;;-1.64;62.70;101119.30;1718679;82;20954;-78
2020/12/12 03:35:34;;;;;;;14.75;8.53;;;;;;;-1.63;62.67;101113.72;1720057;82;20951;-82
2020/12/12 03:38:02;;;;;;;19.55;9.83;;;;;;;-1.65;62.71;101115.43;1718774;82;20963;-80
2020/12/12 03:40:33;;;;;;;18.45;8.55;;;;;;;-1.68;62.71;101112.44;1720261;82;21422;-81
2020/12/12 03:43:01;;;;;;;16.93;9.65;;;;;;;-1.70;62.82;101112.44;1719026;82;20924;-81
2020/12/12 03:45:29;;;;;;;14.53;8.10;;;;;;;-1.71;62.87;101100.45;1728554;81;20947;-77
2020/12/12 03:47:57;;;;;;;23.45;9.33;;;;;;;-1.73;63.01;101118.03;1733811;77;21061;-79
2020/12/12 03:50:28;;;;;;;16.97;8.75;;;;;;;-1.72;62.99;101112.02;1732044;80;20967;-81
2020/12/12 03:52:56;;;;;;;15.85;8.45;;;;;;;-1.78;63.09;101110.33;1731500;81;21000;-80
2020/12/12 03:55:24;;;;;;;20.70;9.73;;;;;;;-1.80;63.14;101098.30;1731452;81;21074;-80
2020/12/12 03:57:52;;;;;;;18.00;7.35;;;;;;;-1.78;63.10;101096.59;1728405;81;20951;-80
2020/12/12 04:00:20;;;;;;;14.43;8.23;;;;;;;-1.77;63.10;101097.88;1730164;81;21002;-79
2020/12/12 04:02:48;;;;;;;16.87;9.55;;;;;;;-1.78;63.07;101097.47;1729964;81;21499;-80
2020/12/12 04:05:16;;;;;;;13.72;7.70;;;;;;;-1.75;63.05;101099.17;1729791;80;21180;-80
2020/12/12 04:07:44;;;;;;;20.82;9.60;;;;;;;-1.73;63.03;101100.03;1729815;81;21002;-78
2020/12/12 04:10:12;;;;;;;16.73;8.05;;;;;;;-1.75;62.99;101097.45;1729894;81;20907;-78
2020/12/12 04:12:41;;;;;;;13.35;7.45;;;;;;;-1.72;62.98;101110.73;1730141;81;21614;-81
2020/12/12 04:15:09;;;;;;;18.35;8.90;;;;;;;-1.73;62.88;101099.59;1729758;81;21022;-80
2020/12/12 04:17:37;;;;;;;14.03;6.95;;;;;;;-1.77;63.05;101106.03;1729730;81;21194;-80
2020/12/12 04:20:05;;;;;;;11.93;6.72;;;;;;;-1.76;63.04;101105.16;1729924;81;21551;-80
2020/12/12 04:22:33;;;;;;;15.63;8.98;;;;;;;-1.79;63.09;101112.45;1729835;81;20907;-81
2020/12/12 04:25:01;;;;;;;19.70;8.95;;;;;;;-1.81;63.11;101105.17;1730100;80;21026;-82
2020/12/12 04:27:30;;;;;;;17.52;8.53;;;;;;;-1.86;63.24;101101.76;1729943;81;20966;-79
2020/12/12 04:29:58;;;;;;;17.67;8.95;;;;;;;-1.90;63.35;101095.75;1729747;81;21347;-81
2020/12/12 04:32:26;;;;;;;17.30;8.20;;;;;;;-1.87;63.41;101101.31;1729850;81;20954;-79
2020/12/12 04:34:54;;;;;;;16.12;9.00;;;;;;;-1.87;63.44;101101.31;1730181;81;21396;-81
2020/12/12 04:37:23;;;;;;;19.77;9.83;;;;;;;-1.85;63.41;101096.17;1757730;80;20931;-80
2020/12/12 04:39:51;;;;;;;20.52;9.18;;;;;;;-1.89;63.50;101092.74;1729584;81;21018;-79
2020/12/12 04:42:19;;;;;;;21.60;9.53;;;;;;;-1.89;63.47;101082.06;1729808;81;21042;-82
2020/12/12 04:44:47;;;;;;;20.10;9.88;;;;;;;-1.91;63.54;101086.78;1729586;81;21241;-81
2020/12/12 04:47:15;;;;;;;14.98;8.40;;;;;;;-1.95;63.67;101082.50;1729769;81;20919;-81
2020/12/12 04:49:43;;;;;;;21.73;9.43;;;;;;;-1.97;63.74;101085.49;1728445;81;20954;-82
2020/12/12 04:52:11;;;;;;;15.03;8.10;;;;;;;-2.01;63.94;101087.20;1704730;81;21006;-80
2020/12/12 04:54:39;;;;;;;21.05;11.25;;;;;;;-1.96;63.92;101091.89;1729776;80;21463;-79
2020/12/12 04:57:07;;;;;;;21.17;10.68;;;;;;;-1.97;63.89;101081.20;1729778;81;21049;-80
2020/12/12 04:59:35;;;;;;;21.20;11.08;;;;;;;-1.93;63.89;101084.64;1729989;80;20988;-79
2020/12/12 05:02:03;;;;;;;21.12;9.65;;;;;;;-1.94;63.98;101089.33;1730982;81;20990;-82
2020/12/12 05:04:35;;;;;;;18.42;9.28;;;;;;;-1.94;63.78;101094.47;1730425;77;21022;31
2020/12/12 05:07:04;;;;;;;12.98;7.47;;;;;;;-1.95;63.76;101084.63;1667377;84;21296;-79
2020/12/12 05:09:32;;;;;;;17.48;8.23;;;;;;;-1.92;63.75;101077.34;1648248;85;21066;-80
2020/12/12 05:12:00;;;;;;;14.63;8.73;;;;;;;-1.91;63.79;101073.49;1648282;85;20990;-79
2020/12/12 05:14:28;;;;;;;18.85;9.40;;;;;;;-1.86;63.77;101073.48;1647816;85;21010;-77
2020/12/12 05:16:57;;;;;;;27.87;9.20;;;;;;;-1.84;63.68;101076.91;1648082;85;21006;-79
2020/12/12 05:19:25;;;;;;;22.13;9.75;;;;;;;-1.81;63.65;101076.89;1626559;85;22149;-77
2020/12/12 05:21:54;;;;;;;29.15;10.55;;;;;;;-1.76;63.66;101084.59;1647782;85;20962;-77
2020/12/12 05:24:25;;;;;;;15.50;8.33;;;;;;;-1.70;63.38;101085.88;1647849;85;20958;-77
2020/12/12 05:27:01;;;;;;;15.63;9.20;;;;;;;-1.68;63.29;101089.30;1648042;85;21645;-78
2020/12/12 05:29:29;;;;;;;18.37;8.45;;;;;;;-1.73;63.32;101084.17;1650011;85;21026;-77
2020/12/12 05:31:59;;;;;;;15.23;8.33;;;;;;;-1.79;63.44;101079.03;1651000;85;21230;-78
2020/12/12 05:34:27;;;;;;;21.20;10.82;;;;;;;-1.80;63.60;101080.31;1648587;85;21071;-79
2020/12/12 05:36:55;;;;;;;19.35;8.38;;;;;;;-1.78;63.63;101072.17;1648123;85;21396;-78
2020/12/12 05:39:24;;;;;;;18.40;9.38;;;;;;;-1.73;63.50;101072.60;1647895;85;20954;-79
2020/12/12 05:41:51;;;;;;;20.20;9.55;;;;;;;-1.70;63.53;101067.87;1647988;85;20982;-79
2020/12/12 05:44:20;;;;;;;20.52;10.25;;;;;;;-1.65;63.38;101061.44;1647889;85;21190;-77
2020/12/12 05:46:48;;;;;;;23.42;9.78;;;;;;;-1.64;63.32;101056.73;1647750;85;20994;-77
2020/12/12 05:49:16;;;;;;;23.00;10.45;;;;;;;-1.62;63.41;101054.98;1647992;85;21078;-78
2020/12/12 05:51:44;;;;;;;19.60;10.05;;;;;;;-1.52;63.14;101057.97;1648195;85;21076;-78
2020/12/12 05:54:13;;;;;;;30.85;14.38;;;;;;;-1.52;62.97;101048.53;1626926;85;20978;-78
2020/12/12 05:56:44;;;;;;;34.33;14.20;;;;;;;-1.57;62.97;101039.14;1648024;85;21206;-76
2020/12/12 05:59:12;;;;;;;30.17;14.15;;;;;;;-1.63;63.18;101040.44;1647877;85;20986;-79
2020/12/12 06:01:40;;;;;;;25.95;10.98;;;;;;;-1.60;63.30;101042.98;1647757;85;21404;-78
2020/12/12 06:04:10;;;;;;;22.15;10.72;;;;;;;-1.58;63.21;101042.14;1646834;85;21641;-80
2020/12/12 06:06:45;;;;;;;22.30;10.30;;;;;;;-1.56;63.21;101043.41;1644273;86;21074;-80
2020/12/12 06:09:15;;;;;;;26.82;12.18;;;;;;;-1.60;63.33;101046.84;1660346;83;21162;-80
2020/12/12 06:11:46;;;;;;;25.45;11.00;;;;;;;-1.58;63.39;101047.29;1661837;83;21050;-81
2020/12/12 06:14:14;;;;;;;24.47;12.85;;;;;;;-1.59;63.45;101043.42;1684432;83;21511;-82
2020/12/12 06:16:43;;;;;;;24.72;12.20;;;;;;;-1.55;63.49;101036.13;1684123;83;21113;-82
2020/12/12 06:19:16;;;;;;;27.02;11.75;;;;;;;-1.44;63.28;101038.23;1684649;83;20964;-80
2020/12/12 06:21:48;;;;;;;26.37;12.53;;;;;;;-1.38;63.08;101039.50;1684385;83;21090;-81
2020/12/12 06:24:19;;;;;;;23.98;11.18;;;;;;;-1.31;62.85;101039.05;1684334;83;21042;-82
2020/12/12 06:26:57;;;;;;;24.60;11.25;;;;;;;-1.27;62.85;101046.73;1684289;83;21031;-82
2020/12/12 06:29:28;;;;;;;19.85;10.23;;;;;;;-1.23;62.71;101038.55;1711127;83;21078;-82
2020/12/12 06:31:56;;;;;;;19.87;11.38;;;;;;;-1.21;62.51;101029.55;1684391;83;21075;-81
2020/12/12 06:34:49;;;;;;;22.93;10.72;;;;;;;-1.23;62.52;101040.28;1684366;82;21885;-80
2020/12/12 06:37:34;;;;;;;16.00;9.33;;;;;;;-1.21;62.53;101039.41;1684042;83;21098;-81
2020/12/12 06:40:10;;;;;;;21.37;10.40;;;;;;;-1.19;62.49;101042.83;1684371;83;21165;-81
2020/12/12 06:42:46;;;;;;;18.73;9.10;;;;;;;-1.17;62.46;101047.98;1684220;83;21075;-80
2020/12/12 06:45:20;;;;;;;23.22;11.90;;;;;;;-1.18;62.48;101043.23;1684169;83;21427;-81
2020/12/12 06:47:50;;;;;;;21.25;10.00;;;;;;;-1.16;62.39;101044.53;1684311;82;21128;-81
2020/12/12 06:50:31;;;;;;;23.38;11.33;;;;;;;-1.17;62.44;101048.83;1684186;83;20983;-81
2020/12/12 06:52:56;;;;;;;21.30;10.98;;;;;;;-1.21;62.60;101041.98;1684133;83;20998;-81
2020/12/12 06:55:25;;;;;;;25.82;12.13;;;;;;;-1.23;62.81;101034.70;1684291;83;21670;-81
2020/12/12 06:57:56;;;;;;;23.40;12.33;;;;;;;-1.24;63.45;101040.72;1684399;83;21631;-82
2020/12/12 07:00:32;;;;;;;21.57;10.55;;;;;;;-1.18;63.85;101041.95;1684206;83;21342;-82
2020/12/12 07:03:06;;;;;;;23.20;11.53;;;;;;;-1.13;63.14;101044.09;1684496;83;21037;-84
2020/12/12 07:05:37;;;;;;;16.97;10.08;;;;;;;-1.12;62.89;101047.52;1684505;83;21122;-82
2020/12/12 07:08:08;;;;;;;24.40;12.90;;;;;;;-1.15;63.30;101043.68;1684084;82;20999;-80
2020/12/12 07:11:00;;;;;;;23.77;11.93;;;;;;;-1.12;63.43;101047.08;1679565;84;20999;-82
2020/12/12 07:13:31;;;;;;;21.07;11.50;;;;;;;-1.06;63.02;101042.34;1666669;82;22176;-79
2020/12/12 07:16:01;;;;;;;25.43;12.82;;;;;;;-1.06;63.10;101042.34;1690031;82;21066;-81
2020/12/12 07:18:29;;;;;;;16.93;8.90;;;;;;;-1.03;63.06;101037.61;1689835;82;20955;-82
2020/12/12 07:20:58;;;;;;;21.07;8.65;;;;;;;-1.01;62.96;101035.44;1646756;83;21042;-82
2020/12/12 07:23:25;;;;;;;17.75;9.53;;;;;;;-1.02;62.99;101036.73;1622613;84;21422;-84
2020/12/12 07:25:54;;;;;;;19.70;9.93;;;;;;;-1.05;63.11;101039.73;1644865;84;21578;-84
2020/12/12 07:28:22;;;;;;;27.55;12.65;;;;;;;-1.03;63.27;101040.18;1645007;84;21603;-83
2020/12/12 07:30:54;;;;;;;22.30;11.90;;;;;;;-1.02;63.46;101039.30;1686518;83;21440;-84
2020/12/12 07:33:25;;;;;;;25.90;13.78;;;;;;;-1.00;63.72;101032.42;1667429;84;21002;-84
2020/12/12 07:35:54;;;;;;;23.95;10.70;;;;;;;-0.95;63.83;101029.41;1686537;83;21539;-85
2020/12/12 07:38:23;;;;;;;22.85;10.35;;;;;;;-0.93;64.11;101037.98;1667175;84;21463;-83
2020/12/12 07:40:51;;;;;;;25.85;11.88;;;;;;;-0.97;64.39;101034.56;1667196;84;21097;-81
2020/12/12 07:43:29;;;;;;;22.67;12.10;;;;;;;-0.99;64.62;101029.86;1667492;84;20975;-83
2020/12/12 07:46:54;;;;;;;19.52;10.82;;;;;;;-0.95;64.73;101025.56;1622413;86;21058;-84
2020/12/12 07:49:22;;;;;;;24.12;12.60;;;;;;;-0.95;64.92;101023.83;1606285;88;21035;-80
2020/12/12 07:52:12;;;;;;;17.92;10.50;;;;;;;-0.98;65.14;101026.40;1625854;87;21165;-81
2020/12/12 07:54:46;;;;;;;20.75;11.03;;;;;;;-1.00;65.43;101027.28;1625980;87;21106;-82
2020/12/12 07:57:15;;;;;;;17.60;9.80;;;;;;;-1.01;65.64;101017.42;1626035;87;21058;-82
2020/12/12 07:59:43;;;;;;;25.23;11.08;;;;;;;-0.99;65.77;101014.41;1625796;87;20987;-80
2020/12/12 08:02:13;;;;;;;20.37;10.48;;;;;;;-0.96;65.74;101018.24;1625792;87;20978;-81
2020/12/12 08:04:41;;;;;;;17.87;10.28;;;;;;;-0.97;65.77;101003.67;1625778;87;21132;-85
2020/12/12 08:07:21;;;;;;;19.10;10.03;;;;;;;-0.98;65.91;100995.52;1625576;87;21064;-82
2020/12/12 08:09:52;;;;;;;30.62;15.55;;;;;;;-0.97;66.00;100994.67;1625866;87;21073;-81
2020/12/12 08:12:33;;;;;;;24.50;13.20;;;;;;;-0.98;66.20;100993.37;1602758;88;20970;-81
2020/12/12 08:15:24;;;;;;;39.23;16.17;;;;;;;-0.91;66.34;100986.91;1852464;77;22208;-81
2020/12/12 08:17:52;;;;;;;25.23;13.80;;;;;;;-1.00;66.54;100993.41;1788533;78;21045;-83
2020/12/12 08:20:25;;;;;;;29.12;14.03;;;;;;;-0.97;66.71;100990.80;1735494;78;21070;-81
2020/12/12 08:22:55;;;;;;;21.68;11.55;;;;;;;-0.94;66.88;100979.63;1778565;79;20911;-79
2020/12/12 08:25:25;;;;;;;28.00;14.75;;;;;;;-0.94;67.30;100984.34;1805449;79;21030;-78
2020/12/12 08:27:54;;;;;;;26.55;12.68;;;;;;;-0.93;67.77;100982.64;1805498;78;21002;-77
2020/12/12 08:30:24;;;;;;;16.55;11.12;;;;;;;-0.96;68.33;100985.22;1754492;79;21018;-79
2020/12/12 08:32:54;;;;;;;20.17;11.00;;;;;;;-0.95;68.68;100977.49;1805556;79;21091;-81
2020/12/12 08:35:25;;;;;;;21.35;11.40;;;;;;;-0.95;69.12;100966.35;1778986;79;20967;-79
2020/12/12 08:38:09;;;;;;;22.93;11.35;;;;;;;-0.92;69.40;100970.18;1805485;79;20962;-81
2020/12/12 08:40:46;;;;;;;27.75;13.40;;;;;;;-0.93;69.74;100979.63;1808169;78;21376;-79
2020/12/12 08:43:15;;;;;;;32.50;14.28;;;;;;;-0.91;70.03;100970.17;1808951;78;21010;-80
2020/12/12 08:48:42;;;;;;;50.00;24.00;;;;;;;-0.89;70.74;100962.42;1760828;79;28056;-80
2020/12/12 08:51:11;;;;;;;51.25;23.10;;;;;;;-0.86;71.10;100976.58;1720296;82;21698;-82
2020/12/12 08:53:44;;;;;;;43.38;20.23;;;;;;;-0.82;70.95;100955.50;1719385;82;21116;-79
2020/12/12 08:56:24;;;;;;;29.10;16.87;;;;;;;-0.76;71.29;100968.34;1719155;82;21404;-79
2020/12/12 08:59:10;;;;;;;28.70;13.45;;;;;;;-0.71;71.18;100961.42;1720198;82;21004;-80
2020/12/12 09:01:44;;;;;;;27.77;15.23;;;;;;;-0.70;71.33;100964.00;1719994;82;20971;-80
2020/12/12 09:04:20;;;;;;;23.00;12.82;;;;;;;-0.71;71.29;100956.27;1720198;82;21054;-79
2020/12/12 09:06:58;;;;;;;26.70;14.07;;;;;;;-0.69;71.41;100954.55;1720199;82;21380;-81
2020/12/12 09:09:30;;;;;;;22.02;12.50;;;;;;;-0.69;71.50;100948.11;1718805;82;21305;-79
2020/12/12 09:12:03;;;;;;;21.62;12.98;;;;;;;-0.68;71.82;100937.80;1719041;82;21022;-81
2020/12/12 09:14:32;;;;;;;27.62;12.88;;;;;;;-0.65;71.91;100926.17;1718981;82;21120;-80
2020/12/12 09:17:04;;;;;;;23.85;11.00;;;;;;;-0.60;71.91;100924.00;1719095;82;21634;-79
2020/12/12 09:19:34;;;;;;;27.97;13.17;;;;;;;-0.59;72.40;100920.12;1750042;82;20943;-81
2020/12/12 09:22:09;;;;;;;19.35;11.38;;;;;;;-0.56;72.51;100911.52;1720100;80;21059;-87
2020/12/12 09:24:43;;;;;;;21.77;12.20;;;;;;;-0.53;72.65;100914.92;1644746;80;21196;-91
2020/12/12 09:27:17;;;;;;;23.87;11.88;;;;;;;-0.53;72.84;100910.22;1616538;84;21104;-83
2020/12/12 09:29:47;;;;;;;19.37;11.55;;;;;;;-0.52;73.01;100908.05;1638868;86;20981;-85
2020/12/12 09:32:16;;;;;;;21.07;11.88;;;;;;;-0.55;73.29;100898.63;1639212;86;22674;-85
2020/12/12 09:34:45;;;;;;;29.65;14.65;;;;;;;-0.54;73.58;100908.05;1639586;85;21013;-84
2020/12/12 09:37:13;;;;;;;29.50;14.13;;;;;;;-0.54;74.04;100900.77;1637815;86;20969;-86
2020/12/12 09:39:45;;;;;;;26.17;14.63;;;;;;;-0.54;74.24;100901.61;1637280;86;20977;-86
2020/12/12 09:42:13;;;;;;;22.25;13.08;;;;;;;-0.55;74.64;100905.07;1637850;86;21057;-86
2020/12/12 09:44:44;;;;;;;22.02;12.55;;;;;;;-0.54;75.21;100899.03;1638329;86;21053;-84
2020/12/12 09:47:24;;;;;;;21.75;13.48;;;;;;;-0.57;75.44;100896.50;1638233;84;21001;-82
2020/12/12 09:49:51;;;;;;;21.37;13.10;;;;;;;-0.56;75.85;100897.34;1638130;86;21487;-81
2020/12/12 09:52:22;;;;;;;22.82;13.25;;;;;;;-0.56;76.33;100893.48;1637738;86;21005;-83
2020/12/12 09:54:50;;;;;;;21.35;12.98;;;;;;;-0.56;76.49;100896.91;1637714;86;21097;-81
2020/12/12 09:57:19;;;;;;;22.82;13.95;;;;;;;-0.54;76.71;100890.02;1637612;86;21115;-83
2020/12/12 09:59:46;;;;;;;27.73;15.05;;;;;;;-0.53;76.83;100888.32;1637351;85;20997;-86
2020/12/12 10:02:15;;;;;;;26.33;14.23;;;;;;;-0.49;76.94;100888.27;1637250;86;21010;-84
2020/12/12 10:04:49;;;;;;;29.80;16.62;;;;;;;-0.43;76.83;100888.63;1665999;85;20973;-84
2020/12/12 10:07:19;;;;;;;26.93;15.72;;;;;;;-0.42;76.96;100895.06;1664874;85;21117;-85
2020/12/12 10:09:48;;;;;;;23.98;13.48;;;;;;;-0.36;76.94;100881.25;1637448;86;21192;-83
2020/12/12 10:12:22;;;;;;;27.37;15.18;;;;;;;-0.31;77.02;100892.79;1637248;86;21550;-84
2020/12/12 10:14:59;;;;;;;28.67;14.58;;;;;;;-0.26;76.91;100893.61;1637032;86;21053;-83
2020/12/12 10:17:35;;;;;;;28.38;15.23;;;;;;;-0.23;76.94;100892.28;1637326;86;21470;-85
2020/12/12 10:20:04;;;;;;;23.87;12.73;;;;;;;-0.19;76.88;100889.24;1637349;86;20989;-86
2020/12/12 10:22:35;;;;;;;25.85;14.55;;;;;;;-0.16;76.90;100887.47;1637699;86;21963;-84
2020/12/12 10:25:04;;;;;;;25.50;14.65;;;;;;;-0.17;76.94;100890.93;1637095;86;21442;-86
2020/12/12 10:27:33;;;;;;;31.35;17.50;;;;;;;-0.17;77.07;100886.22;1638146;86;20990;-86
2020/12/12 10:30:03;;;;;;;28.25;15.32;;;;;;;-0.14;77.28;100893.45;1637194;86;21626;-83
2020/12/12 10:32:32;;;;;;;26.15;14.50;;;;;;;-0.06;77.15;100891.66;1637405;86;21021;-83
2020/12/12 10:35:00;;;;;;;26.30;14.13;;;;;;;0.02;77.10;100884.26;1637594;86;21049;-84
2020/12/12 10:37:29;;;;;;;26.07;14.10;;;;;;;0.08;77.12;100886.77;1637028;86;21489;-87
2020/12/12 10:42:25;;;;;;;43.73;15.83;;;;;;;0.10;77.20;100882.45;1640326;86;20969;-79
2020/12/12 10:44:54;;;;;;;23.65;12.75;;;;;;;0.17;77.09;100887.48;1638773;85;20974;-80
2020/12/12 10:47:22;;;;;;;28.75;18.07;;;;;;;0.22;77.11;100886.14;1617388;86;21495;-82
2020/12/12 10:49:51;;;;;;;31.60;17.85;;;;;;;0.23;77.34;100892.17;1637361;86;21645;-81
2020/12/12 10:52:22;;;;;;;38.05;21.60;;;;;;;0.28;77.39;100899.41;1614150;84;21059;-80
2020/12/12 10:54:50;;;;;;;30.30;17.30;;;;;;;0.31;77.41;100890.33;1637036;86;21072;-79
2020/12/12 10:57:18;;;;;;;33.63;17.05;;;;;;;0.33;77.46;100886.84;1637127;86;21660;-78
2020/12/12 10:59:46;;;;;;;28.95;15.43;;;;;;;0.35;77.66;100888.97;1637329;85;21015;-78
2020/12/12 11:02:14;;;;;;;28.47;14.25;;;;;;;0.40;77.64;100894.95;1637132;86;21546;-80
2020/12/12 11:04:43;;;;;;;36.50;17.87;;;;;;;0.47;77.72;100893.55;1637124;86;21053;-79
2020/12/12 11:07:11;;;;;;;24.30;13.25;;;;;;;0.53;77.85;100899.47;1636876;85;21065;-76
2020/12/12 11:09:40;;;;;;;29.52;16.93;;;;;;;0.55;77.91;100894.30;1636883;85;21036;-76
2020/12/12 11:12:08;;;;;;;26.93;15.72;;;;;;;0.56;78.07;100901.19;1636908;85;21096;-76
2020/12/12 11:14:36;;;;;;;30.10;15.88;;;;;;;0.57;78.21;100902.88;1594943;86;21049;-77
2020/12/12 11:17:04;;;;;;;26.17;15.30;;;;;;;0.61;78.32;100899.38;1637039;86;21009;-80
2020/12/12 11:19:32;;;;;;;25.12;13.55;;;;;;;0.67;78.35;100901.87;1636996;86;21473;-79
2020/12/12 11:22:00;;;;;;;33.08;16.80;;;;;;;0.74;78.40;100900.06;1636988;86;21001;-79
2020/12/12 11:24:28;;;;;;;31.70;17.23;;;;;;;0.76;78.41;100900.45;1636870;86;22214;-75
2020/12/12 11:26:56;;;;;;;35.63;19.67;;;;;;;0.81;78.69;100904.25;1636505;86;21001;-78
2020/12/12 11:29:24;;;;;;;33.28;18.75;;;;;;;0.85;78.50;100902.04;1647843;84;21087;-78
2020/12/12 11:31:54;;;;;;;25.62;14.05;;;;;;;0.87;78.61;100902.88;1693144;83;21378;-76
2020/12/12 11:34:30;;;;;;;26.05;13.35;;;;;;;0.94;78.48;100903.18;1693485;84;20975;-76
2020/12/12 11:37:08;;;;;;;27.62;14.80;;;;;;;0.96;78.41;100898.84;1669503;84;22092;-76